sensor_id;sensor_type;location;lat;lon;timestamp;temperature;humidity
23051;DHT22;11693;51.358;12.410;2022-11-11T00:01:19;13.30;99.90
23051;DHT22;11693;51.358;12.410;2022-11-11T00:03:45;13.30;99.90
23051;DHT22;11693;51.358;12.410;2022-11-11T00:06:13;13.40;99.90
23051;DHT22;11693;51.358;12.410;2022-11-11T00:08:39;13.40;99.90
23051;DHT22;11693;51.358;12.410;2022-11-11T00:11:07;13.40;99.90
23051;DHT22;11693;51.358;12.410;2022-11-11T00:13:34;13.30;99.90
23051;DHT22;11693;51.358;12.410;2022-11-11T00:18:29;13.30;99.90
23051;DHT22;11693;51.358;12.410;2022-11-11T00:21:24;13.40;99.90
23051;DHT22;11693;51.358;12.410;2022-11-11T00:24:35;13.30;99.90
23051;DHT22;11693;51.358;12.410;2022-11-11T00:27:19;13.30;99.90
23051;DHT22;11693;51.358;12.410;2022-11-11T00:29:46;13.30;99.90
23051;DHT22;11693;51.358;12.410;2022-11-11T00:32:12;13.20;99.90
23051;DHT22;11693;51.358;12.410;2022-11-11T00:34:57;13.30;99.90
23051;DHT22;11693;51.358;12.410;2022-11-11T00:37:44;13.40;99.90
23051;DHT22;11693;51.358;12.410;2022-11-11T00:40:11;13.40;99.90
23051;DHT22;11693;51.358;12.410;2022-11-11T00:42:37;13.30;99.90
23051;DHT22;11693;51.358;12.410;2022-11-11T00:45:04;13.20;99.90
23051;DHT22;11693;51.358;12.410;2022-11-11T00:47:30;13.20;99.90
23051;DHT22;11693;51.358;12.410;2022-11-11T00:50:19;13.20;99.90
23051;DHT22;11693;51.358;12.410;2022-11-11T00:53:11;13.20;99.90
23051;DHT22;11693;51.358;12.410;2022-11-11T00:55:38;13.10;99.90
23051;DHT22;11693;51.358;12.410;2022-11-11T00:58:04;13.00;99.90
23051;DHT22;11693;51.358;12.410;2022-11-11T01:00:29;13.00;99.90
23051;DHT22;11693;51.358;12.410;2022-11-11T01:02:57;13.00;99.90
23051;DHT22;11693;51.358;12.410;2022-11-11T01:05:23;13.00;99.90
23051;DHT22;11693;51.358;12.410;2022-11-11T01:07:49;13.00;99.90
23051;DHT22;11693;51.358;12.410;2022-11-11T01:10:18;12.90;99.90
23051;DHT22;11693;51.358;12.410;2022-11-11T01:15:42;12.80;99.90
23051;DHT22;11693;51.358;12.410;2022-11-11T01:18:10;12.80;99.90
23051;DHT22;11693;51.358;12.410;2022-11-11T01:20:36;12.70;99.90
23051;DHT22;11693;51.358;12.410;2022-11-11T01:23:04;12.80;99.90
23051;DHT22;11693;51.358;12.410;2022-11-11T01:25:35;12.70;99.90
23051;DHT22;11693;51.358;12.410;2022-11-11T01:28:19;12.80;99.90
23051;DHT22;11693;51.358;12.410;2022-11-11T01:30:45;12.80;99.90
23051;DHT22;11693;51.358;12.410;2022-11-11T01:33:11;12.80;99.90
23051;DHT22;11693;51.358;12.410;2022-11-11T01:35:38;12.80;99.90
23051;DHT22;11693;51.358;12.410;2022-11-11T01:38:04;12.80;99.90
23051;DHT22;11693;51.358;12.410;2022-11-11T01:40:29;12.90;99.90
23051;DHT22;11693;51.358;12.410;2022-11-11T01:45:57;12.80;99.90
23051;DHT22;11693;51.358;12.410;2022-11-11T01:54:00;12.90;99.90
23051;DHT22;11693;51.358;12.410;2022-11-11T01:56:27;12.80;99.90
23051;DHT22;11693;51.358;12.410;2022-11-11T01:58:56;12.90;99.90
23051;DHT22;11693;51.358;12.410;2022-11-11T02:01:22;12.90;99.90
23051;DHT22;11693;51.358;12.410;2022-11-11T02:03:49;12.80;99.90
23051;DHT22;11693;51.358;12.410;2022-11-11T02:06:35;12.80;99.90
23051;DHT22;11693;51.358;12.410;2022-11-11T02:09:02;12.70;99.90
23051;DHT22;11693;51.358;12.410;2022-11-11T02:11:30;12.80;99.90
23051;DHT22;11693;51.358;12.410;2022-11-11T02:14:16;12.80;99.90
23051;DHT22;11693;51.358;12.410;2022-11-11T02:17:02;12.70;99.90
23051;DHT22;11693;51.358;12.410;2022-11-11T02:19:44;12.80;99.90
23051;DHT22;11693;51.358;12.410;2022-11-11T02:22:15;12.70;99.90
23051;DHT22;11693;51.358;12.410;2022-11-11T02:24:42;12.70;99.90
23051;DHT22;11693;51.358;12.410;2022-11-11T02:27:14;12.60;99.90
23051;DHT22;11693;51.358;12.410;2022-11-11T02:29:42;12.60;99.90
23051;DHT22;11693;51.358;12.410;2022-11-11T02:32:09;12.60;99.90
23051;DHT22;11693;51.358;12.410;2022-11-11T02:34:34;12.60;99.90
23051;DHT22;11693;51.358;12.410;2022-11-11T02:37:02;12.60;99.90
23051;DHT22;11693;51.358;12.410;2022-11-11T02:39:29;12.50;99.90
23051;DHT22;11693;51.358;12.410;2022-11-11T02:41:55;12.60;99.90
23051;DHT22;11693;51.358;12.410;2022-11-11T02:44:26;12.60;99.90
23051;DHT22;11693;51.358;12.410;2022-11-11T02:46:52;12.60;99.90
23051;DHT22;11693;51.358;12.410;2022-11-11T02:49:18;12.60;99.90
23051;DHT22;11693;51.358;12.410;2022-11-11T02:51:43;12.60;99.90
23051;DHT22;11693;51.358;12.410;2022-11-11T02:54:09;12.60;99.90
23051;DHT22;11693;51.358;12.410;2022-11-11T02:56:35;12.60;99.90
23051;DHT22;11693;51.358;12.410;2022-11-11T02:59:35;12.60;99.90
23051;DHT22;11693;51.358;12.410;2022-11-11T03:02:01;12.50;99.90
23051;DHT22;11693;51.358;12.410;2022-11-11T03:04:26;12.60;99.90
23051;DHT22;11693;51.358;12.410;2022-11-11T03:06:52;12.50;99.90
23051;DHT22;11693;51.358;12.410;2022-11-11T03:09:17;12.50;99.90
23051;DHT22;11693;51.358;12.410;2022-11-11T03:11:56;12.60;99.90
23051;DHT22;11693;51.358;12.410;2022-11-11T03:14:22;12.50;99.90
23051;DHT22;11693;51.358;12.410;2022-11-11T03:16:48;12.50;99.90
23051;DHT22;11693;51.358;12.410;2022-11-11T03:19:32;12.50;99.90
23051;DHT22;11693;51.358;12.410;2022-11-11T03:21:58;12.50;99.90
23051;DHT22;11693;51.358;12.410;2022-11-11T03:24:24;12.50;99.90
23051;DHT22;11693;51.358;12.410;2022-11-11T03:27:10;12.50;99.90
23051;DHT22;11693;51.358;12.410;2022-11-11T03:29:36;12.60;99.90
23051;DHT22;11693;51.358;12.410;2022-11-11T03:32:02;12.60;99.90
23051;DHT22;11693;51.358;12.410;2022-11-11T03:34:27;12.50;99.90
23051;DHT22;11693;51.358;12.410;2022-11-11T03:36:53;12.50;99.90
23051;DHT22;11693;51.358;12.410;2022-11-11T03:39:37;12.50;99.90
23051;DHT22;11693;51.358;12.410;2022-11-11T03:42:02;12.50;99.90
23051;DHT22;11693;51.358;12.410;2022-11-11T03:44:28;12.50;99.90
23051;DHT22;11693;51.358;12.410;2022-11-11T03:46:55;12.40;99.90
23051;DHT22;11693;51.358;12.410;2022-11-11T03:49:20;12.50;99.90
23051;DHT22;11693;51.358;12.410;2022-11-11T03:51:46;12.50;99.90
23051;DHT22;11693;51.358;12.410;2022-11-11T03:54:12;12.50;99.90
23051;DHT22;11693;51.358;12.410;2022-11-11T03:56:37;12.50;99.90
23051;DHT22;11693;51.358;12.410;2022-11-11T03:59:03;12.50;99.90
23051;DHT22;11693;51.358;12.410;2022-11-11T04:01:29;12.60;99.90
23051;DHT22;11693;51.358;12.410;2022-11-11T04:04:13;12.60;99.90
23051;DHT22;11693;51.358;12.410;2022-11-11T04:06:57;12.50;99.90
23051;DHT22;11693;51.358;12.410;2022-11-11T04:09:41;12.60;99.90
23051;DHT22;11693;51.358;12.410;2022-11-11T04:12:26;12.50;99.90
23051;DHT22;11693;51.358;12.410;2022-11-11T04:14:53;12.50;99.90
23051;DHT22;11693;51.358;12.410;2022-11-11T04:17:37;12.50;99.90
23051;DHT22;11693;51.358;12.410;2022-11-11T04:20:03;12.50;99.90
23051;DHT22;11693;51.358;12.410;2022-11-11T04:22:47;12.40;99.90
23051;DHT22;11693;51.358;12.410;2022-11-11T04:25:13;12.50;99.90
23051;DHT22;11693;51.358;12.410;2022-11-11T04:27:57;12.40;99.90
23051;DHT22;11693;51.358;12.410;2022-11-11T04:30:42;12.50;99.90
23051;DHT22;11693;51.358;12.410;2022-11-11T04:33:08;12.50;99.90
23051;DHT22;11693;51.358;12.410;2022-11-11T04:35:34;12.60;99.90
23051;DHT22;11693;51.358;12.410;2022-11-11T04:38:00;12.60;99.90
23051;DHT22;11693;51.358;12.410;2022-11-11T04:40:44;12.60;99.90
23051;DHT22;11693;51.358;12.410;2022-11-11T04:43:29;12.60;99.90
23051;DHT22;11693;51.358;12.410;2022-11-11T04:45:59;12.60;99.90
23051;DHT22;11693;51.358;12.410;2022-11-11T04:48:24;12.70;99.90
23051;DHT22;11693;51.358;12.410;2022-11-11T04:50:50;12.60;99.90
23051;DHT22;11693;51.358;12.410;2022-11-11T04:53:16;12.50;99.90
23051;DHT22;11693;51.358;12.410;2022-11-11T04:55:43;12.60;99.90
23051;DHT22;11693;51.358;12.410;2022-11-11T04:58:33;12.70;99.90
23051;DHT22;11693;51.358;12.410;2022-11-11T05:00:59;12.70;99.90
23051;DHT22;11693;51.358;12.410;2022-11-11T05:03:24;12.70;99.90
23051;DHT22;11693;51.358;12.410;2022-11-11T05:05:51;12.90;99.90
23051;DHT22;11693;51.358;12.410;2022-11-11T05:08:44;12.80;99.90
23051;DHT22;11693;51.358;12.410;2022-11-11T05:11:35;12.80;99.90
23051;DHT22;11693;51.358;12.410;2022-11-11T05:14:05;12.70;99.90
23051;DHT22;11693;51.358;12.410;2022-11-11T05:16:51;12.60;99.90
23051;DHT22;11693;51.358;12.410;2022-11-11T05:19:36;12.70;99.90
23051;DHT22;11693;51.358;12.410;2022-11-11T05:24:49;12.60;99.90
23051;DHT22;11693;51.358;12.410;2022-11-11T05:27:33;12.60;99.90
23051;DHT22;11693;51.358;12.410;2022-11-11T05:29:58;12.60;99.90
23051;DHT22;11693;51.358;12.410;2022-11-11T05:32:25;12.60;99.90
23051;DHT22;11693;51.358;12.410;2022-11-11T05:34:51;12.70;99.90
23051;DHT22;11693;51.358;12.410;2022-11-11T05:37:17;12.60;99.90
23051;DHT22;11693;51.358;12.410;2022-11-11T05:39:42;12.70;99.90
23051;DHT22;11693;51.358;12.410;2022-11-11T05:42:08;12.80;99.90
23051;DHT22;11693;51.358;12.410;2022-11-11T05:44:34;12.80;99.90
23051;DHT22;11693;51.358;12.410;2022-11-11T05:47:00;12.90;99.90
23051;DHT22;11693;51.358;12.410;2022-11-11T05:49:26;12.80;99.90
23051;DHT22;11693;51.358;12.410;2022-11-11T05:51:53;12.80;99.90
23051;DHT22;11693;51.358;12.410;2022-11-11T05:54:20;12.80;99.90
23051;DHT22;11693;51.358;12.410;2022-11-11T05:56:45;12.80;99.90
23051;DHT22;11693;51.358;12.410;2022-11-11T05:59:11;12.80;99.90
23051;DHT22;11693;51.358;12.410;2022-11-11T06:01:37;12.90;99.90
23051;DHT22;11693;51.358;12.410;2022-11-11T06:04:03;12.90;99.90
23051;DHT22;11693;51.358;12.410;2022-11-11T06:06:29;12.90;99.90
23051;DHT22;11693;51.358;12.410;2022-11-11T06:08:55;13.00;99.90
23051;DHT22;11693;51.358;12.410;2022-11-11T06:11:21;12.90;99.90
23051;DHT22;11693;51.358;12.410;2022-11-11T06:13:48;12.90;99.90
23051;DHT22;11693;51.358;12.410;2022-11-11T06:16:14;13.00;99.90
23051;DHT22;11693;51.358;12.410;2022-11-11T06:18:39;13.00;99.90
23051;DHT22;11693;51.358;12.410;2022-11-11T06:21:05;13.00;99.90
23051;DHT22;11693;51.358;12.410;2022-11-11T06:23:31;13.00;99.90
23051;DHT22;11693;51.358;12.410;2022-11-11T06:25:57;13.00;99.90
23051;DHT22;11693;51.358;12.410;2022-11-11T06:28:49;13.00;99.90
23051;DHT22;11693;51.358;12.410;2022-11-11T06:31:21;12.90;99.90
23051;DHT22;11693;51.358;12.410;2022-11-11T06:33:47;13.00;99.90
23051;DHT22;11693;51.358;12.410;2022-11-11T06:36:14;13.00;99.90
23051;DHT22;11693;51.358;12.410;2022-11-11T06:38:41;13.00;99.90
23051;DHT22;11693;51.358;12.410;2022-11-11T06:41:07;12.90;99.90
23051;DHT22;11693;51.358;12.410;2022-11-11T06:43:34;12.90;99.90
23051;DHT22;11693;51.358;12.410;2022-11-11T06:46:00;13.00;99.90
23051;DHT22;11693;51.358;12.410;2022-11-11T06:48:28;13.10;99.90
23051;DHT22;11693;51.358;12.410;2022-11-11T06:51:03;13.20;99.90
23051;DHT22;11693;51.358;12.410;2022-11-11T06:53:29;13.30;99.90
23051;DHT22;11693;51.358;12.410;2022-11-11T06:55:55;13.30;99.90
23051;DHT22;11693;51.358;12.410;2022-11-11T06:58:22;13.50;99.90
23051;DHT22;11693;51.358;12.410;2022-11-11T07:00:48;13.70;99.90
23051;DHT22;11693;51.358;12.410;2022-11-11T07:03:16;13.80;99.90
23051;DHT22;11693;51.358;12.410;2022-11-11T07:05:43;13.90;99.90
23051;DHT22;11693;51.358;12.410;2022-11-11T07:08:11;13.80;99.90
23051;DHT22;11693;51.358;12.410;2022-11-11T07:10:39;13.80;99.90
23051;DHT22;11693;51.358;12.410;2022-11-11T07:13:06;13.80;99.90
23051;DHT22;11693;51.358;12.410;2022-11-11T07:15:32;13.70;99.90
23051;DHT22;11693;51.358;12.410;2022-11-11T07:17:59;13.80;99.90
23051;DHT22;11693;51.358;12.410;2022-11-11T07:20:24;13.80;99.90
23051;DHT22;11693;51.358;12.410;2022-11-11T07:22:50;13.90;99.90
23051;DHT22;11693;51.358;12.410;2022-11-11T07:25:16;14.00;99.90
23051;DHT22;11693;51.358;12.410;2022-11-11T07:27:42;13.80;99.90
23051;DHT22;11693;51.358;12.410;2022-11-11T07:30:09;14.00;99.90
23051;DHT22;11693;51.358;12.410;2022-11-11T07:32:36;14.00;99.90
23051;DHT22;11693;51.358;12.410;2022-11-11T07:35:02;14.00;99.90
23051;DHT22;11693;51.358;12.410;2022-11-11T07:37:31;14.10;99.90
23051;DHT22;11693;51.358;12.410;2022-11-11T07:39:57;14.10;99.90
23051;DHT22;11693;51.358;12.410;2022-11-11T07:42:22;14.10;99.90
23051;DHT22;11693;51.358;12.410;2022-11-11T07:44:48;14.10;99.90
23051;DHT22;11693;51.358;12.410;2022-11-11T07:47:14;14.20;99.90
23051;DHT22;11693;51.358;12.410;2022-11-11T07:49:39;14.30;99.90
23051;DHT22;11693;51.358;12.410;2022-11-11T07:52:05;14.20;99.90
23051;DHT22;11693;51.358;12.410;2022-11-11T07:54:31;14.40;99.90
23051;DHT22;11693;51.358;12.410;2022-11-11T07:56:56;14.40;99.90
23051;DHT22;11693;51.358;12.410;2022-11-11T07:59:22;14.50;99.90
23051;DHT22;11693;51.358;12.410;2022-11-11T08:01:48;14.60;99.90
23051;DHT22;11693;51.358;12.410;2022-11-11T08:04:14;14.70;99.90
23051;DHT22;11693;51.358;12.410;2022-11-11T08:06:39;14.70;99.90
23051;DHT22;11693;51.358;12.410;2022-11-11T08:09:05;14.70;99.90
23051;DHT22;11693;51.358;12.410;2022-11-11T08:11:31;14.70;99.90
23051;DHT22;11693;51.358;12.410;2022-11-11T08:14:15;14.80;99.90
23051;DHT22;11693;51.358;12.410;2022-11-11T08:16:40;14.80;99.90
23051;DHT22;11693;51.358;12.410;2022-11-11T08:19:06;14.80;99.90
23051;DHT22;11693;51.358;12.410;2022-11-11T08:21:32;14.80;99.90
23051;DHT22;11693;51.358;12.410;2022-11-11T08:23:57;14.80;99.90
23051;DHT22;11693;51.358;12.410;2022-11-11T08:26:23;14.80;99.90
23051;DHT22;11693;51.358;12.410;2022-11-11T08:28:50;14.80;99.90
23051;DHT22;11693;51.358;12.410;2022-11-11T08:31:16;14.90;99.90
23051;DHT22;11693;51.358;12.410;2022-11-11T08:33:42;15.00;99.90
23051;DHT22;11693;51.358;12.410;2022-11-11T08:36:08;14.90;99.90
23051;DHT22;11693;51.358;12.410;2022-11-11T08:38:36;15.00;99.90
23051;DHT22;11693;51.358;12.410;2022-11-11T08:41:04;15.10;99.90
23051;DHT22;11693;51.358;12.410;2022-11-11T08:43:30;15.10;99.90
23051;DHT22;11693;51.358;12.410;2022-11-11T08:46:00;15.30;99.90
23051;DHT22;11693;51.358;12.410;2022-11-11T08:48:31;15.20;99.90
23051;DHT22;11693;51.358;12.410;2022-11-11T08:50:57;15.30;99.90
23051;DHT22;11693;51.358;12.410;2022-11-11T08:53:23;15.20;99.90
23051;DHT22;11693;51.358;12.410;2022-11-11T08:55:49;15.30;99.90
23051;DHT22;11693;51.358;12.410;2022-11-11T08:58:15;15.40;99.90
23051;DHT22;11693;51.358;12.410;2022-11-11T09:00:40;15.40;99.90
23051;DHT22;11693;51.358;12.410;2022-11-11T09:03:09;15.40;99.90
23051;DHT22;11693;51.358;12.410;2022-11-11T09:05:37;15.50;99.90
23051;DHT22;11693;51.358;12.410;2022-11-11T09:08:04;15.60;99.90
23051;DHT22;11693;51.358;12.410;2022-11-11T09:10:34;15.80;99.90
23051;DHT22;11693;51.358;12.410;2022-11-11T09:13:01;16.00;99.90
23051;DHT22;11693;51.358;12.410;2022-11-11T09:15:27;16.10;99.90
23051;DHT22;11693;51.358;12.410;2022-11-11T09:17:53;16.10;99.90
23051;DHT22;11693;51.358;12.410;2022-11-11T09:20:19;16.00;99.90
23051;DHT22;11693;51.358;12.410;2022-11-11T09:22:46;16.00;99.90
23051;DHT22;11693;51.358;12.410;2022-11-11T09:25:12;15.90;99.90
23051;DHT22;11693;51.358;12.410;2022-11-11T09:27:39;16.10;99.90
23051;DHT22;11693;51.358;12.410;2022-11-11T09:30:05;16.20;99.90
23051;DHT22;11693;51.358;12.410;2022-11-11T09:32:31;16.20;99.90
23051;DHT22;11693;51.358;12.410;2022-11-11T09:34:58;16.30;99.90
23051;DHT22;11693;51.358;12.410;2022-11-11T09:37:24;16.40;99.90
23051;DHT22;11693;51.358;12.410;2022-11-11T09:39:50;16.60;99.90
23051;DHT22;11693;51.358;12.410;2022-11-11T09:42:37;16.80;99.90
23051;DHT22;11693;51.358;12.410;2022-11-11T09:48:07;17.00;99.90
23051;DHT22;11693;51.358;12.410;2022-11-11T09:50:42;16.90;99.90
23051;DHT22;11693;51.358;12.410;2022-11-11T09:53:20;17.20;99.90
23051;DHT22;11693;51.358;12.410;2022-11-11T09:55:52;17.30;99.90
23051;DHT22;11693;51.358;12.410;2022-11-11T10:01:00;17.60;99.90
23051;DHT22;11693;51.358;12.410;2022-11-11T10:03:28;17.80;99.90
23051;DHT22;11693;51.358;12.410;2022-11-11T10:06:28;18.00;99.90
23051;DHT22;11693;51.358;12.410;2022-11-11T10:08:58;18.30;99.90
23051;DHT22;11693;51.358;12.410;2022-11-11T10:14:04;18.40;99.90
23051;DHT22;11693;51.358;12.410;2022-11-11T10:21:52;19.10;99.90
23051;DHT22;11693;51.358;12.410;2022-11-11T10:24:31;19.10;99.90
23051;DHT22;11693;51.358;12.410;2022-11-11T10:27:01;19.10;99.90
23051;DHT22;11693;51.358;12.410;2022-11-11T10:29:34;19.20;99.90
23051;DHT22;11693;51.358;12.410;2022-11-11T10:32:23;19.30;99.90
23051;DHT22;11693;51.358;12.410;2022-11-11T10:34:50;19.30;99.90
23051;DHT22;11693;51.358;12.410;2022-11-11T10:37:28;19.40;99.90
23051;DHT22;11693;51.358;12.410;2022-11-11T10:42:30;19.20;99.90
23051;DHT22;11693;51.358;12.410;2022-11-11T10:45:00;19.10;99.90
23051;DHT22;11693;51.358;12.410;2022-11-11T10:47:34;19.10;99.90
23051;DHT22;11693;51.358;12.410;2022-11-11T10:50:06;19.30;99.90
23051;DHT22;11693;51.358;12.410;2022-11-11T10:52:39;19.10;99.90
23051;DHT22;11693;51.358;12.410;2022-11-11T10:57:58;19.40;99.90
23051;DHT22;11693;51.358;12.410;2022-11-11T11:00:25;19.30;99.90
23051;DHT22;11693;51.358;12.410;2022-11-11T11:08:34;19.80;99.80
23051;DHT22;11693;51.358;12.410;2022-11-11T11:11:08;20.00;99.20
23051;DHT22;11693;51.358;12.410;2022-11-11T11:13:49;20.00;99.10
23051;DHT22;11693;51.358;12.410;2022-11-11T11:16:25;20.20;99.10
23051;DHT22;11693;51.358;12.410;2022-11-11T11:19:19;20.40;98.70
23051;DHT22;11693;51.358;12.410;2022-11-11T11:21:56;20.60;98.30
23051;DHT22;11693;51.358;12.410;2022-11-11T11:24:30;20.40;97.90
23051;DHT22;11693;51.358;12.410;2022-11-11T11:27:01;20.30;98.50
23051;DHT22;11693;51.358;12.410;2022-11-11T11:29:28;20.30;98.30
23051;DHT22;11693;51.358;12.410;2022-11-11T11:31:55;20.70;98.10
23051;DHT22;11693;51.358;12.410;2022-11-11T11:34:21;21.10;97.40
23051;DHT22;11693;51.358;12.410;2022-11-11T11:37:00;21.70;96.50
23051;DHT22;11693;51.358;12.410;2022-11-11T11:39:37;22.30;95.60
23051;DHT22;11693;51.358;12.410;2022-11-11T11:42:04;22.60;94.60
23051;DHT22;11693;51.358;12.410;2022-11-11T11:44:39;22.70;94.00
23051;DHT22;11693;51.358;12.410;2022-11-11T11:47:17;22.80;93.70
23051;DHT22;11693;51.358;12.410;2022-11-11T11:55:39;23.90;90.70
23051;DHT22;11693;51.358;12.410;2022-11-11T11:58:31;24.20;90.30
23051;DHT22;11693;51.358;12.410;2022-11-11T12:01:04;24.60;87.90
23051;DHT22;11693;51.358;12.410;2022-11-11T12:04:53;24.90;86.50
23051;DHT22;11693;51.358;12.410;2022-11-11T12:20:26;26.30;77.30
23051;DHT22;11693;51.358;12.410;2022-11-11T12:22:59;26.70;76.70
23051;DHT22;11693;51.358;12.410;2022-11-11T12:30:51;26.60;71.50
23051;DHT22;11693;51.358;12.410;2022-11-11T12:48:58;21.60;83.20
23051;DHT22;11693;51.358;12.410;2022-11-11T12:56:56;21.10;85.40
23051;DHT22;11693;51.358;12.410;2022-11-11T13:05:19;20.70;85.90
23051;DHT22;11693;51.358;12.410;2022-11-11T13:16:06;20.20;87.30
23051;DHT22;11693;51.358;12.410;2022-11-11T13:21:54;19.90;88.50
23051;DHT22;11693;51.358;12.410;2022-11-11T13:24:23;19.90;89.20
23051;DHT22;11693;51.358;12.410;2022-11-11T13:31:59;19.80;89.10
23051;DHT22;11693;51.358;12.410;2022-11-11T13:34:26;19.70;89.50
23051;DHT22;11693;51.358;12.410;2022-11-11T13:36:54;19.60;89.80
23051;DHT22;11693;51.358;12.410;2022-11-11T13:39:27;19.50;90.10
23051;DHT22;11693;51.358;12.410;2022-11-11T13:41:55;19.50;90.30
23051;DHT22;11693;51.358;12.410;2022-11-11T13:44:33;19.70;90.60
23051;DHT22;11693;51.358;12.410;2022-11-11T13:47:06;19.70;90.70
23051;DHT22;11693;51.358;12.410;2022-11-11T13:49:33;19.70;90.80
23051;DHT22;11693;51.358;12.410;2022-11-11T13:52:05;19.60;91.10
23051;DHT22;11693;51.358;12.410;2022-11-11T13:54:48;19.60;91.40
23051;DHT22;11693;51.358;12.410;2022-11-11T13:57:17;19.60;91.90
23051;DHT22;11693;51.358;12.410;2022-11-11T14:02:47;19.50;92.80
23051;DHT22;11693;51.358;12.410;2022-11-11T14:05:17;19.50;93.10
23051;DHT22;11693;51.358;12.410;2022-11-11T14:12:46;19.40;93.90
23051;DHT22;11693;51.358;12.410;2022-11-11T14:15:38;19.40;94.20
23051;DHT22;11693;51.358;12.410;2022-11-11T14:20:50;19.40;94.50
23051;DHT22;11693;51.358;12.410;2022-11-11T14:37:15;19.20;95.60
23051;DHT22;11693;51.358;12.410;2022-11-11T14:39:53;19.20;96.00
23051;DHT22;11693;51.358;12.410;2022-11-11T14:47:53;19.00;96.20
23051;DHT22;11693;51.358;12.410;2022-11-11T14:52:58;18.90;96.50
23051;DHT22;11693;51.358;12.410;2022-11-11T14:55:35;18.90;96.60
23051;DHT22;11693;51.358;12.410;2022-11-11T14:58:16;18.90;96.60
23051;DHT22;11693;51.358;12.410;2022-11-11T15:03:39;18.70;96.80
23051;DHT22;11693;51.358;12.410;2022-11-11T15:06:26;18.70;97.00
23051;DHT22;11693;51.358;12.410;2022-11-11T15:11:43;18.50;97.40
23051;DHT22;11693;51.358;12.410;2022-11-11T15:17:01;18.40;97.80
23051;DHT22;11693;51.358;12.410;2022-11-11T15:20:01;18.30;97.80
23051;DHT22;11693;51.358;12.410;2022-11-11T15:25:47;18.20;98.10
23051;DHT22;11693;51.358;12.410;2022-11-11T15:33:26;18.10;98.30
23051;DHT22;11693;51.358;12.410;2022-11-11T15:36:12;18.00;98.50
23051;DHT22;11693;51.358;12.410;2022-11-11T15:38:40;18.10;98.60
23051;DHT22;11693;51.358;12.410;2022-11-11T15:41:23;18.00;98.50
23051;DHT22;11693;51.358;12.410;2022-11-11T15:43:49;18.00;99.00
23051;DHT22;11693;51.358;12.410;2022-11-11T15:46:30;17.90;98.80
23051;DHT22;11693;51.358;12.410;2022-11-11T15:49:00;17.90;98.90
23051;DHT22;11693;51.358;12.410;2022-11-11T15:51:32;17.90;99.00
23051;DHT22;11693;51.358;12.410;2022-11-11T15:54:18;17.80;99.10
23051;DHT22;11693;51.358;12.410;2022-11-11T15:56:46;17.90;99.20
23051;DHT22;11693;51.358;12.410;2022-11-11T16:01:42;17.80;99.30
23051;DHT22;11693;51.358;12.410;2022-11-11T16:04:10;17.80;99.30
23051;DHT22;11693;51.358;12.410;2022-11-11T16:06:39;17.70;99.40
23051;DHT22;11693;51.358;12.410;2022-11-11T16:09:06;17.60;99.60
23051;DHT22;11693;51.358;12.410;2022-11-11T16:11:37;17.50;99.60
23051;DHT22;11693;51.358;12.410;2022-11-11T16:14:17;17.50;99.80
23051;DHT22;11693;51.358;12.410;2022-11-11T16:16:44;17.50;99.80
23051;DHT22;11693;51.358;12.410;2022-11-11T16:19:38;17.50;99.80
23051;DHT22;11693;51.358;12.410;2022-11-11T16:22:20;17.50;99.90
23051;DHT22;11693;51.358;12.410;2022-11-11T16:24:48;17.50;99.90
23051;DHT22;11693;51.358;12.410;2022-11-11T16:27:17;17.40;99.90
23051;DHT22;11693;51.358;12.410;2022-11-11T16:29:43;17.30;99.90
23051;DHT22;11693;51.358;12.410;2022-11-11T16:34:52;17.30;99.90
23051;DHT22;11693;51.358;12.410;2022-11-11T16:37:19;17.30;99.90
23051;DHT22;11693;51.358;12.410;2022-11-11T16:39:45;17.20;99.90
23051;DHT22;11693;51.358;12.410;2022-11-11T16:42:26;17.10;99.90
23051;DHT22;11693;51.358;12.410;2022-11-11T16:44:55;17.10;99.90
23051;DHT22;11693;51.358;12.410;2022-11-11T16:50:00;17.00;99.90
23051;DHT22;11693;51.358;12.410;2022-11-11T16:52:27;17.10;99.90
23051;DHT22;11693;51.358;12.410;2022-11-11T16:54:56;17.10;99.90
23051;DHT22;11693;51.358;12.410;2022-11-11T16:57:26;17.00;99.90
23051;DHT22;11693;51.358;12.410;2022-11-11T16:59:56;16.90;99.90
23051;DHT22;11693;51.358;12.410;2022-11-11T17:02:23;16.80;99.90
23051;DHT22;11693;51.358;12.410;2022-11-11T17:04:54;16.70;99.90
23051;DHT22;11693;51.358;12.410;2022-11-11T17:07:33;16.60;99.90
23051;DHT22;11693;51.358;12.410;2022-11-11T17:10:21;16.60;99.90
23051;DHT22;11693;51.358;12.410;2022-11-11T17:12:49;16.70;99.90
23051;DHT22;11693;51.358;12.410;2022-11-11T17:15:18;16.60;99.90
23051;DHT22;11693;51.358;12.410;2022-11-11T17:17:44;16.50;99.90
23051;DHT22;11693;51.358;12.410;2022-11-11T17:20:14;16.50;99.90
23051;DHT22;11693;51.358;12.410;2022-11-11T17:22:55;16.40;99.90
23051;DHT22;11693;51.358;12.410;2022-11-11T17:25:21;16.40;99.90
23051;DHT22;11693;51.358;12.410;2022-11-11T17:27:46;16.30;99.90
23051;DHT22;11693;51.358;12.410;2022-11-11T17:30:13;16.40;99.90
23051;DHT22;11693;51.358;12.410;2022-11-11T17:32:41;16.40;99.90
23051;DHT22;11693;51.358;12.410;2022-11-11T17:35:07;16.30;99.90
23051;DHT22;11693;51.358;12.410;2022-11-11T17:37:34;16.30;99.90
23051;DHT22;11693;51.358;12.410;2022-11-11T17:40:00;16.20;99.90
23051;DHT22;11693;51.358;12.410;2022-11-11T17:42:30;16.10;99.90
23051;DHT22;11693;51.358;12.410;2022-11-11T17:44:55;16.00;99.90
23051;DHT22;11693;51.358;12.410;2022-11-11T17:47:21;16.00;99.90
23051;DHT22;11693;51.358;12.410;2022-11-11T17:49:46;16.00;99.90
23051;DHT22;11693;51.358;12.410;2022-11-11T17:52:12;16.00;99.90
23051;DHT22;11693;51.358;12.410;2022-11-11T17:54:38;16.00;99.90
23051;DHT22;11693;51.358;12.410;2022-11-11T17:57:04;15.90;99.90
23051;DHT22;11693;51.358;12.410;2022-11-11T17:59:29;15.80;99.90
23051;DHT22;11693;51.358;12.410;2022-11-11T18:01:55;15.80;99.90
23051;DHT22;11693;51.358;12.410;2022-11-11T18:04:21;15.80;99.90
23051;DHT22;11693;51.358;12.410;2022-11-11T18:06:47;15.90;99.90
23051;DHT22;11693;51.358;12.410;2022-11-11T18:09:12;15.80;99.90
23051;DHT22;11693;51.358;12.410;2022-11-11T18:11:38;15.80;99.90
23051;DHT22;11693;51.358;12.410;2022-11-11T18:14:04;15.70;99.90
23051;DHT22;11693;51.358;12.410;2022-11-11T18:16:29;15.70;99.90
23051;DHT22;11693;51.358;12.410;2022-11-11T18:18:55;15.60;99.90
23051;DHT22;11693;51.358;12.410;2022-11-11T18:21:26;15.60;99.90
23051;DHT22;11693;51.358;12.410;2022-11-11T18:23:52;15.60;99.90